sensor_id;sensor_type;location;lat;lon;timestamp;pressure;altitude;pressure_sealevel;temperature;humidity
55914;BME280;58179;48.776;9.124;2024-02-28T00:10:00;97311.47;;;6.76;100.00
55914;BME280;58179;48.776;9.124;2024-02-28T00:12:26;97310.66;;;6.75;100.00
55914;BME280;58179;48.776;9.124;2024-02-28T00:14:53;97309.06;;;6.74;100.00
55914;BME280;58179;48.776;9.124;2024-02-28T02:36:04;97376.81;;;6.07;100.00
55914;BME280;58179;48.776;9.124;2024-02-28T02:38:30;97386.50;;;6.07;100.00
55914;BME280;58179;48.776;9.124;2024-02-28T02:40:57;97380.44;;;6.06;100.00
55914;BME280;58179;48.776;9.124;2024-02-28T02:43:23;97383.88;;;6.07;100.00
55914;BME280;58179;48.776;9.124;2024-02-28T02:48:25;97390.16;;;6.06;100.00
55914;BME280;58179;48.776;9.124;2024-02-28T03:16:42;97432.72;;;5.96;100.00
55914;BME280;58179;48.776;9.124;2024-02-28T03:19:09;97431.34;;;5.94;100.00
55914;BME280;58179;48.776;9.124;2024-02-28T03:21:35;97436.59;;;5.94;100.00
55914;BME280;58179;48.776;9.124;2024-02-28T03:24:01;97438.19;;;5.95;100.00
55914;BME280;58179;48.776;9.124;2024-02-28T03:26:28;97442.63;;;5.94;100.00
55914;BME280;58179;48.776;9.124;2024-02-28T03:28:54;97448.69;;;5.95;100.00
55914;BME280;58179;48.776;9.124;2024-02-28T03:31:20;97444.03;;;5.97;100.00
55914;BME280;58179;48.776;9.124;2024-02-28T03:33:47;97454.53;;;5.97;100.00
55914;BME280;58179;48.776;9.124;2024-02-28T03:36:13;97455.34;;;5.97;100.00
55914;BME280;58179;48.776;9.124;2024-02-28T03:38:40;97465.03;;;5.97;100.00
55914;BME280;58179;48.776;9.124;2024-02-28T03:41:06;97461.63;;;5.96;100.00
55914;BME280;58179;48.776;9.124;2024-02-28T03:43:33;97464.25;;;5.96;100.00
55914;BME280;58179;48.776;9.124;2024-02-28T03:45:59;97471.53;;;5.94;100.00
55914;BME280;58179;48.776;9.124;2024-02-28T03:48:25;97466.06;;;5.96;100.00
55914;BME280;58179;48.776;9.124;2024-02-28T03:50:52;97473.38;;;5.94;100.00
55914;BME280;58179;48.776;9.124;2024-02-28T03:53:19;97473.38;;;5.94;100.00
55914;BME280;58179;48.776;9.124;2024-02-28T03:55:45;97479.66;;;5.93;100.00
55914;BME280;58179;48.776;9.124;2024-02-28T03:58:11;97478.25;;;5.90;100.00
55914;BME280;58179;48.776;9.124;2024-02-28T04:00:37;97478.03;;;5.92;100.00
55914;BME280;58179;48.776;9.124;2024-02-28T04:03:04;97485.34;;;5.90;100.00
55914;BME280;58179;48.776;9.124;2024-02-28T04:05:31;97475.84;;;5.89;100.00
55914;BME280;58179;48.776;9.124;2024-02-28T04:07:58;97485.53;;;5.88;100.00
55914;BME280;58179;48.776;9.124;2024-02-28T04:10:24;97488.19;;;5.88;100.00
55914;BME280;58179;48.776;9.124;2024-02-28T04:12:50;97490.81;;;5.88;100.00
55914;BME280;58179;48.776;9.124;2024-02-28T04:15:17;97484.94;;;5.86;100.00
55914;BME280;58179;48.776;9.124;2024-02-28T04:17:43;97492.03;;;5.86;100.00
55914;BME280;58179;48.776;9.124;2024-02-28T04:20:10;97492.25;;;5.84;100.00
55914;BME280;58179;48.776;9.124;2024-02-28T04:22:36;97490.63;;;5.83;100.00
55914;BME280;58179;48.776;9.124;2024-02-28T04:25:04;97499.53;;;5.82;100.00
55914;BME280;58179;48.776;9.124;2024-02-28T04:27:30;97497.91;;;5.81;100.00
55914;BME280;58179;48.776;9.124;2024-02-28T04:29:57;97496.31;;;5.80;100.00
55914;BME280;58179;48.776;9.124;2024-02-28T04:32:23;97496.31;;;5.80;100.00
55914;BME280;58179;48.776;9.124;2024-02-28T04:34:49;97490.25;;;5.79;100.00
55914;BME280;58179;48.776;9.124;2024-02-28T04:37:15;97499.94;;;5.79;100.00
55914;BME280;58179;48.776;9.124;2024-02-28T04:39:41;97494.94;;;5.77;100.00
55914;BME280;58179;48.776;9.124;2024-02-28T04:42:08;97500.41;;;5.76;100.00
55914;BME280;58179;48.776;9.124;2024-02-28T04:44:35;97505.88;;;5.74;100.00
55914;BME280;58179;48.776;9.124;2024-02-28T04:47:02;97504.84;;;5.75;100.00
55914;BME280;58179;48.776;9.124;2024-02-28T04:49:28;97507.47;;;5.75;100.00
55914;BME280;58179;48.776;9.124;2024-02-28T04:51:54;97513.53;;;5.76;100.00
55914;BME280;58179;48.776;9.124;2024-02-28T04:54:21;97514.13;;;5.78;100.00
55914;BME280;58179;48.776;9.124;2024-02-28T04:56:47;97504.25;;;5.73;100.00
55914;BME280;58179;48.776;9.124;2024-02-28T05:01:50;97510.53;;;5.72;100.00
55914;BME280;58179;48.776;9.124;2024-02-28T05:04:21;97508.34;;;5.69;100.00
55914;BME280;58179;48.776;9.124;2024-02-28T05:06:48;97510.38;;;5.67;100.00
55914;BME280;58179;48.776;9.124;2024-02-28T05:11:48;97515.03;;;5.65;100.00
55914;BME280;58179;48.776;9.124;2024-02-28T05:16:51;97510.25;;;5.62;100.00
55914;BME280;58179;48.776;9.124;2024-02-28T05:35:31;97523.78;;;5.59;100.00
55914;BME280;58179;48.776;9.124;2024-02-28T05:37:57;97523.44;;;5.56;100.00
55914;BME280;58179;48.776;9.124;2024-02-28T05:40:23;97524.44;;;5.55;100.00
55914;BME280;58179;48.776;9.124;2024-02-28T05:42:50;97529.91;;;5.53;100.00
55914;BME280;58179;48.776;9.124;2024-02-28T05:45:16;97543.44;;;5.50;100.00
55914;BME280;58179;48.776;9.124;2024-02-28T05:47:42;97535.81;;;5.49;100.00
55914;BME280;58179;48.776;9.124;2024-02-28T05:50:09;97546.31;;;5.49;100.00
55914;BME280;58179;48.776;9.124;2024-02-28T05:52:37;97549.94;;;5.48;100.00
55914;BME280;58179;48.776;9.124;2024-02-28T05:55:04;97557.81;;;5.48;100.00
55914;BME280;58179;48.776;9.124;2024-02-28T05:57:30;97560.44;;;5.48;100.00
55914;BME280;58179;48.776;9.124;2024-02-28T05:59:56;97560.66;;;5.46;100.00
55914;BME280;58179;48.776;9.124;2024-02-28T06:02:25;97567.13;;;5.43;100.00
55914;BME280;58179;48.776;9.124;2024-02-28T06:04:52;97568.59;;;5.39;100.00
55914;BME280;58179;48.776;9.124;2024-02-28T06:07:18;97566.16;;;5.38;100.00
55914;BME280;58179;48.776;9.124;2024-02-28T06:09:46;97572.22;;;5.38;100.00
55914;BME280;58179;48.776;9.124;2024-02-28T06:12:12;97574.25;;;5.36;100.00
55914;BME280;58179;48.776;9.124;2024-02-28T06:14:38;97583.75;;;5.37;100.00
55914;BME280;58179;48.776;9.124;2024-02-28T06:17:04;97583.75;;;5.37;100.00
55914;BME280;58179;48.776;9.124;2024-02-28T06:19:31;97586.38;;;5.37;100.00
55914;BME280;58179;48.776;9.124;2024-02-28T06:21:57;97587.38;;;5.36;100.00
55914;BME280;58179;48.776;9.124;2024-02-28T06:24:23;97589.19;;;5.36;100.00
55914;BME280;58179;48.776;9.124;2024-02-28T06:26:50;97600.50;;;5.36;100.00
55914;BME280;58179;48.776;9.124;2024-02-28T06:29:16;97598.09;;;5.35;100.00
55914;BME280;58179;48.776;9.124;2024-02-28T06:31:43;97598.69;;;5.37;100.00
55914;BME280;58179;48.776;9.124;2024-02-28T06:34:09;97599.28;;;5.39;100.00
55914;BME280;58179;48.776;9.124;2024-02-28T06:36:35;97601.31;;;5.37;100.00
55914;BME280;58179;48.776;9.124;2024-02-28T06:39:01;97606.34;;;5.38;100.00
55914;BME280;58179;48.776;9.124;2024-02-28T06:41:27;97614.22;;;5.38;100.00
55914;BME280;58179;48.776;9.124;2024-02-28T06:43:55;97608.78;;;5.40;100.00
55914;BME280;58179;48.776;9.124;2024-02-28T06:46:21;97611.16;;;5.41;100.00
55914;BME280;58179;48.776;9.124;2024-02-28T06:48:47;97624.88;;;5.43;100.00
55914;BME280;58179;48.776;9.124;2024-02-28T06:51:13;97616.59;;;5.47;100.00
55914;BME280;58179;48.776;9.124;2024-02-28T06:53:41;97624.03;;;5.50;100.00
55914;BME280;58179;48.776;9.124;2024-02-28T06:56:08;97629.88;;;5.52;100.00
55914;BME280;58179;48.776;9.124;2024-02-28T06:58:34;97623.63;;;5.53;100.00
55914;BME280;58179;48.776;9.124;2024-02-28T07:01:01;97627.66;;;5.55;100.00
55914;BME280;58179;48.776;9.124;2024-02-28T07:03:28;97624.00;;;5.56;100.00
55914;BME280;58179;48.776;9.124;2024-02-28T07:05:54;97633.47;;;5.57;100.00
55914;BME280;58179;48.776;9.124;2024-02-28T07:08:20;97625.97;;;5.61;100.00
55914;BME280;58179;48.776;9.124;2024-02-28T07:10:47;97631.59;;;5.64;100.00
55914;BME280;58179;48.776;9.124;2024-02-28T07:13:15;97634.63;;;5.68;100.00
55914;BME280;58179;48.776;9.124;2024-02-28T07:15:41;97636.22;;;5.69;100.00
55914;BME280;58179;48.776;9.124;2024-02-28T07:18:09;97640.53;;;5.63;100.00
55914;BME280;58179;48.776;9.124;2024-02-28T07:20:35;97651.59;;;5.65;100.00
55914;BME280;58179;48.776;9.124;2024-02-28T07:23:01;97651.59;;;5.65;100.00
55914;BME280;58179;48.776;9.124;2024-02-28T07:25:28;97661.09;;;5.66;100.00
55914;BME280;58179;48.776;9.124;2024-02-28T07:27:54;97662.50;;;5.69;100.00
55914;BME280;58179;48.776;9.124;2024-02-28T07:30:22;97673.34;;;5.72;100.00
55914;BME280;58179;48.776;9.124;2024-02-28T07:32:48;97666.88;;;5.75;100.00
55914;BME280;58179;48.776;9.124;2024-02-28T07:35:16;97663.84;;;5.78;100.00
55914;BME280;58179;48.776;9.124;2024-02-28T07:37:42;97674.72;;;5.81;100.00
55914;BME280;58179;48.776;9.124;2024-02-28T07:40:09;97676.13;;;5.84;100.00
55914;BME280;58179;48.776;9.124;2024-02-28T07:42:35;97680.13;;;5.87;100.00
55914;BME280;58179;48.776;9.124;2024-02-28T07:45:01;97683.38;;;5.89;100.00
55914;BME280;58179;48.776;9.124;2024-02-28T07:47:28;97691.06;;;5.90;100.00
55914;BME280;58179;48.776;9.124;2024-02-28T07:49:56;97690.03;;;5.91;100.00
55914;BME280;58179;48.776;9.124;2024-02-28T07:52:24;97701.97;;;5.94;100.00
55914;BME280;58179;48.776;9.124;2024-02-28T07:54:50;97696.47;;;5.95;100.00
55914;BME280;58179;48.776;9.124;2024-02-28T07:57:17;97693.84;;;5.95;100.00
55914;BME280;58179;48.776;9.124;2024-02-28T07:59:43;97703.34;;;5.96;100.00
55914;BME280;58179;48.776;9.124;2024-02-28T08:02:10;97702.91;;;5.99;100.00
55914;BME280;58179;48.776;9.124;2024-02-28T08:04:39;97711.16;;;6.03;100.00
55914;BME280;58179;48.776;9.124;2024-02-28T08:07:05;97694.91;;;6.12;100.00
55914;BME280;58179;48.776;9.124;2024-02-28T08:09:32;97694.31;;;6.10;100.00
55914;BME280;58179;48.776;9.124;2024-02-28T08:11:58;97701.47;;;6.03;100.00
55914;BME280;58179;48.776;9.124;2024-02-28T08:14:25;97709.34;;;6.03;100.00
55914;BME280;58179;48.776;9.124;2024-02-28T08:16:51;97707.53;;;6.04;100.00
55914;BME280;58179;48.776;9.124;2024-02-28T08:19:17;97709.53;;;6.08;100.00
55914;BME280;58179;48.776;9.124;2024-02-28T08:21:43;97704.69;;;6.05;100.00
55914;BME280;58179;48.776;9.124;2024-02-28T08:24:10;97707.69;;;6.09;100.00
55914;BME280;58179;48.776;9.124;2024-02-28T08:26:37;97705.22;;;6.14;100.00
55914;BME280;58179;48.776;9.124;2024-02-28T08:29:04;97708.41;;;6.22;100.00
55914;BME280;58179;48.776;9.124;2024-02-28T08:31:31;97710.16;;;6.29;100.00
55914;BME280;58179;48.776;9.124;2024-02-28T08:33:58;97709.28;;;6.35;100.00
55914;BME280;58179;48.776;9.124;2024-02-28T08:36:24;97717.56;;;6.38;100.00
55914;BME280;58179;48.776;9.124;2024-02-28T08:38:50;97711.66;;;6.43;100.00
55914;BME280;58179;48.776;9.124;2024-02-28T08:41:17;97717.72;;;6.43;100.00
55914;BME280;58179;48.776;9.124;2024-02-28T08:43:45;97715.28;;;6.42;100.00
55914;BME280;58179;48.776;9.124;2024-02-28T08:46:14;97714.47;;;6.41;100.00
55914;BME280;58179;48.776;9.124;2024-02-28T08:48:42;97723.38;;;6.40;100.00
55914;BME280;58179;48.776;9.124;2024-02-28T08:51:09;97727.03;;;6.39;100.00
55914;BME280;58179;48.776;9.124;2024-02-28T08:53:35;97732.28;;;6.39;100.00
55914;BME280;58179;48.776;9.124;2024-02-28T08:56:01;97730.47;;;6.40;100.00
55914;BME280;58179;48.776;9.124;2024-02-28T08:58:27;97725.22;;;6.40;100.00
55914;BME280;58179;48.776;9.124;2024-02-28T09:00:55;97726.47;;;6.37;100.00
55914;BME280;58179;48.776;9.124;2024-02-28T09:03:21;97738.00;;;6.36;100.00
55914;BME280;58179;48.776;9.124;2024-02-28T09:05:48;97737.19;;;6.36;100.00
55914;BME280;58179;48.776;9.124;2024-02-28T09:08:14;97734.56;;;6.36;100.00
55914;BME280;58179;48.776;9.124;2024-02-28T09:10:40;97736.38;;;6.35;100.00
55914;BME280;58179;48.776;9.124;2024-02-28T09:13:07;97741.84;;;6.34;100.00
55914;BME280;58179;48.776;9.124;2024-02-28T09:15:33;97736.38;;;6.35;100.00
55914;BME280;58179;48.776;9.124;2024-02-28T09:18:01;97742.25;;;6.37;100.00
55914;BME280;58179;48.776;9.124;2024-02-28T09:20:28;97745.03;;;6.42;100.00
55914;BME280;58179;48.776;9.124;2024-02-28T09:22:54;97736.72;;;6.45;100.00
55914;BME280;58179;48.776;9.124;2024-02-28T09:25:20;97742.53;;;6.47;100.00
55914;BME280;58179;48.776;9.124;2024-02-28T09:27:47;97732.41;;;6.51;100.00
55914;BME280;58179;48.776;9.124;2024-02-28T09:30:14;97736.00;;;6.56;100.00
55914;BME280;58179;48.776;9.124;2024-02-28T09:32:41;97725.41;;;6.63;100.00
55914;BME280;58179;48.776;9.124;2024-02-28T09:35:09;97725.94;;;6.72;100.00
55914;BME280;58179;48.776;9.124;2024-02-28T09:37:37;97726.44;;;6.80;100.00
55914;BME280;58179;48.776;9.124;2024-02-28T09:40:07;97735.06;;;6.87;100.00
55914;BME280;58179;48.776;9.124;2024-02-28T09:42:34;97729.16;;;6.92;100.00
55914;BME280;58179;48.776;9.124;2024-02-28T09:45:01;97731.50;;;7.00;100.00
55914;BME280;58179;48.776;9.124;2024-02-28T09:47:30;97726.75;;;7.09;100.00
55914;BME280;58179;48.776;9.124;2024-02-28T09:49:58;97731.19;;;7.08;100.00
55914;BME280;58179;48.776;9.124;2024-02-28T09:52:28;97734.00;;;7.13;100.00
55914;BME280;58179;48.776;9.124;2024-02-28T09:54:54;97733.31;;;7.18;100.00
55914;BME280;58179;48.776;9.124;2024-02-28T09:57:22;97734.03;;;7.25;100.00
55914;BME280;58179;48.776;9.124;2024-02-28T09:59:54;97739.59;;;7.35;100.00
55914;BME280;58179;48.776;9.124;2024-02-28T10:02:27;97731.97;;;7.45;100.00
55914;BME280;58179;48.776;9.124;2024-02-28T10:04:56;97739.34;;;7.55;100.00
55914;BME280;58179;48.776;9.124;2024-02-28T10:07:27;97736.63;;;7.61;100.00
55914;BME280;58179;48.776;9.124;2024-02-28T10:09:54;97736.53;;;7.68;100.00
55914;BME280;58179;48.776;9.124;2024-02-28T10:12:21;97739.53;;;7.71;100.00
55914;BME280;58179;48.776;9.124;2024-02-28T10:14:49;97737.47;;;7.73;100.00
55914;BME280;58179;48.776;9.124;2024-02-28T10:17:17;97735.88;;;7.72;100.00
55914;BME280;58179;48.776;9.124;2024-02-28T10:19:43;97743.41;;;7.69;100.00
55914;BME280;58179;48.776;9.124;2024-02-28T10:22:09;97742.25;;;7.65;100.00
55914;BME280;58179;48.776;9.124;2024-02-28T10:24:36;97746.72;;;7.64;100.00
55914;BME280;58179;48.776;9.124;2024-02-28T10:27:04;97748.56;;;7.64;100.00
55914;BME280;58179;48.776;9.124;2024-02-28T10:29:30;97754.41;;;7.66;100.00
55914;BME280;58179;48.776;9.124;2024-02-28T10:32:00;97749.34;;;7.64;100.00
55914;BME280;58179;48.776;9.124;2024-02-28T10:34:27;97765.75;;;7.66;100.00
55914;BME280;58179;48.776;9.124;2024-02-28T10:36:53;97757.84;;;7.66;100.00
55914;BME280;58179;48.776;9.124;2024-02-28T10:39:20;97769.41;;;7.65;100.00
55914;BME280;58179;48.776;9.124;2024-02-28T10:41:51;97766.53;;;7.67;100.00
55914;BME280;58179;48.776;9.124;2024-02-28T10:44:18;97781.31;;;7.68;100.00
55914;BME280;58179;48.776;9.124;2024-02-28T10:46:49;97767.50;;;7.72;100.00
55914;BME280;58179;48.776;9.124;2024-02-28T10:49:16;97772.59;;;7.67;100.00
55914;BME280;58179;48.776;9.124;2024-02-28T10:51:46;97781.09;;;7.69;100.00
55914;BME280;58179;48.776;9.124;2024-02-28T10:54:14;97787.75;;;7.72;100.00
55914;BME280;58179;48.776;9.124;2024-02-28T10:56:42;97788.09;;;7.75;100.00
55914;BME280;58179;48.776;9.124;2024-02-28T10:59:11;97789.50;;;7.78;100.00
55914;BME280;58179;48.776;9.124;2024-02-28T11:01:40;97788.69;;;7.77;100.00
55914;BME280;58179;48.776;9.124;2024-02-28T11:04:10;97789.50;;;7.78;100.00
55914;BME280;58179;48.776;9.124;2024-02-28T11:06:48;97789.50;;;7.78;100.00
55914;BME280;58179;48.776;9.124;2024-02-28T11:09:19;97788.47;;;7.79;100.00
55914;BME280;58179;48.776;9.124;2024-02-28T11:11:48;97786.28;;;7.76;100.00
55914;BME280;58179;48.776;9.124;2024-02-28T11:14:16;97782.84;;;7.75;100.00
55914;BME280;58179;48.776;9.124;2024-02-28T11:16:43;97796.81;;;7.76;100.00
55914;BME280;58179;48.776;9.124;2024-02-28T11:19:20;97801.06;;;7.77;100.00
55914;BME280;58179;48.776;9.124;2024-02-28T11:21:53;97802.31;;;7.74;100.00
55914;BME280;58179;48.776;9.124;2024-02-28T11:24:23;97802.56;;;7.73;100.00
55914;BME280;58179;48.776;9.124;2024-02-28T11:26:50;97803.34;;;7.73;100.00
55914;BME280;58179;48.776;9.124;2024-02-28T11:29:22;97806.00;;;7.73;100.00
55914;BME280;58179;48.776;9.124;2024-02-28T11:31:49;97803.13;;;7.75;100.00
55914;BME280;58179;48.776;9.124;2024-02-28T11:34:15;97807.00;;;7.72;100.00
55914;BME280;58179;48.776;9.124;2024-02-28T11:36:42;97795.06;;;7.70;100.00
55914;BME280;58179;48.776;9.124;2024-02-28T11:39:08;97801.38;;;7.69;100.00
55914;BME280;58179;48.776;9.124;2024-02-28T11:41:34;97798.94;;;7.67;100.00
55914;BME280;58179;48.776;9.124;2024-02-28T11:44:00;97798.16;;;7.67;100.00
55914;BME280;58179;48.776;9.124;2024-02-28T11:46:28;97798.59;;;7.64;100.00
55914;BME280;58179;48.776;9.124;2024-02-28T11:48:54;97807.53;;;7.63;100.00
55914;BME280;58179;48.776;9.124;2024-02-28T11:51:21;97801.69;;;7.61;100.00
55914;BME280;58179;48.776;9.124;2024-02-28T11:53:47;97801.13;;;7.59;100.00
55914;BME280;58179;48.776;9.124;2024-02-28T11:56:14;97794.38;;;7.63;100.00
55914;BME280;58179;48.776;9.124;2024-02-28T11:58:50;97799.03;;;7.61;100.00
55914;BME280;58179;48.776;9.124;2024-02-28T12:01:16;97797.00;;;7.63;100.00
55914;BME280;58179;48.776;9.124;2024-02-28T12:03:46;97791.50;;;7.64;100.00
55914;BME280;58179;48.776;9.124;2024-02-28T12:06:13;97793.47;;;7.69;100.00
55914;BME280;58179;48.776;9.124;2024-02-28T12:08:39;97793.03;;;7.72;100.00
55914;BME280;58179;48.776;9.124;2024-02-28T12:11:08;97797.72;;;7.70;100.00
55914;BME280;58179;48.776;9.124;2024-02-28T12:13:37;97789.22;;;7.68;100.00
55914;BME280;58179;48.776;9.124;2024-02-28T12:16:04;97792.31;;;7.65;100.00
55914;BME280;58179;48.776;9.124;2024-02-28T12:18:30;97786.25;;;7.64;100.00
55914;BME280;58179;48.776;9.124;2024-02-28T12:20:58;97781.69;;;7.71;100.00
55914;BME280;58179;48.776;9.124;2024-02-28T12:23:25;97782.13;;;7.68;100.00
55914;BME280;58179;48.776;9.124;2024-02-28T12:25:51;97785.06;;;7.60;100.00
55914;BME280;58179;48.776;9.124;2024-02-28T12:28:17;97776.81;;;7.57;100.00
55914;BME280;58179;48.776;9.124;2024-02-28T12:30:43;97777.63;;;7.57;100.00
55914;BME280;58179;48.776;9.124;2024-02-28T12:33:10;97779.56;;;7.62;100.00
55914;BME280;58179;48.776;9.124;2024-02-28T12:35:37;97775.69;;;7.64;100.00
55914;BME280;58179;48.776;9.124;2024-02-28T12:38:05;97779.69;;;7.67;100.00
55914;BME280;58179;48.776;9.124;2024-02-28T12:40:31;97778.69;;;7.68;100.00
55914;BME280;58179;48.776;9.124;2024-02-28T12:42:57;97779.69;;;7.67;100.00
55914;BME280;58179;48.776;9.124;2024-02-28T12:45:23;97774.44;;;7.67;100.00
55914;BME280;58179;48.776;9.124;2024-02-28T12:47:49;97779.94;;;7.65;100.00
55914;BME280;58179;48.776;9.124;2024-02-28T12:50:16;97769.16;;;7.67;100.00
55914;BME280;58179;48.776;9.124;2024-02-28T12:52:42;97774.69;;;7.65;100.00
55914;BME280;58179;48.776;9.124;2024-02-28T12:55:09;97769.84;;;7.62;100.00
55914;BME280;58179;48.776;9.124;2024-02-28T12:57:36;97759.81;;;7.71;100.00
55914;BME280;58179;48.776;9.124;2024-02-28T13:00:02;97764.66;;;7.56;100.00
55914;BME280;58179;48.776;9.124;2024-02-28T13:02:28;97758.75;;;7.42;100.00
55914;BME280;58179;48.776;9.124;2024-02-28T13:04:54;97758.03;;;7.35;100.00
55914;BME280;58179;48.776;9.124;2024-02-28T13:07:21;97756.44;;;7.34;100.00
55914;BME280;58179;48.776;9.124;2024-02-28T13:09:48;97759.41;;;7.37;100.00
55914;BME280;58179;48.776;9.124;2024-02-28T13:12:16;97763.56;;;7.45;100.00
55914;BME280;58179;48.776;9.124;2024-02-28T13:14:43;97766.78;;;7.47;100.00
55914;BME280;58179;48.776;9.124;2024-02-28T13:17:09;97767.97;;;7.51;100.00
55914;BME280;58179;48.776;9.124;2024-02-28T13:19:36;97761.66;;;7.52;100.00
55914;BME280;58179;48.776;9.124;2024-02-28T13:22:02;97762.63;;;7.58;100.00
55914;BME280;58179;48.776;9.124;2024-02-28T13:24:28;97770.88;;;7.61;100.00
55914;BME280;58179;48.776;9.124;2024-02-28T13:26:54;97766.19;;;7.63;100.00
55914;BME280;58179;48.776;9.124;2024-02-28T13:29:22;97766.53;;;7.67;100.00
55914;BME280;58179;48.776;9.124;2024-02-28T13:31:48;97766.53;;;7.67;100.00
55914;BME280;58179;48.776;9.124;2024-02-28T13:34:14;97767.34;;;7.67;100.00
55914;BME280;58179;48.776;9.124;2024-02-28T13:36:40;97773.41;;;7.68;100.00
55914;BME280;58179;48.776;9.124;2024-02-28T13:39:09;97767.34;;;7.67;100.00
55914;BME280;58179;48.776;9.124;2024-02-28T13:41:38;97765.75;;;7.66;100.00
55914;BME280;58179;48.776;9.124;2024-02-28T13:44:04;97770.22;;;7.66;100.00
55914;BME280;58179;48.776;9.124;2024-02-28T13:46:32;97759.44;;;7.67;100.00
55914;BME280;58179;48.776;9.124;2024-02-28T13:48:58;97753.59;;;7.65;100.00
55914;BME280;58179;48.776;9.124;2024-02-28T13:51:24;97745.69;;;7.65;100.00
55914;BME280;58179;48.776;9.124;2024-02-28T13:53:50;97746.03;;;7.69;100.00
55914;BME280;58179;48.776;9.124;2024-02-28T13:56:19;97733.34;;;7.66;100.00
55914;BME280;58179;48.776;9.124;2024-02-28T13:58:45;97733.75;;;7.63;100.00
55914;BME280;58179;48.776;9.124;2024-02-28T14:01:12;97740.06;;;7.62;100.00
55914;BME280;58179;48.776;9.124;2024-02-28T14:03:40;97735.59;;;7.62;100.00
55914;BME280;58179;48.776;9.124;2024-02-28T14:06:06;97746.72;;;7.64;100.00
55914;BME280;58179;48.776;9.124;2024-02-28T14:08:32;97741.06;;;7.61;100.00
55914;BME280;58179;48.776;9.124;2024-02-28T14:10:58;97746.31;;;7.49;100.00
55914;BME280;58179;48.776;9.124;2024-02-28T14:13:25;97751.22;;;7.46;100.00
55914;BME280;58179;48.776;9.124;2024-02-28T14:15:51;97759.34;;;7.44;100.00
55914;BME280;58179;48.776;9.124;2024-02-28T14:18:19;97759.34;;;7.44;100.00
55914;BME280;58179;48.776;9.124;2024-02-28T14:20:47;97759.78;;;7.41;100.00
55914;BME280;58179;48.776;9.124;2024-02-28T14:23:13;97757.97;;;7.42;100.00
55914;BME280;58179;48.776;9.124;2024-02-28T14:25:39;97761.19;;;7.44;100.00
55914;BME280;58179;48.776;9.124;2024-02-28T14:28:06;97757.75;;;7.43;100.00
55914;BME280;58179;48.776;9.124;2024-02-28T14:30:32;97765.41;;;7.45;100.00
55914;BME280;58179;48.776;9.124;2024-02-28T14:32:59;97762.75;;;7.45;100.00
55914;BME280;58179;48.776;9.124;2024-02-28T14:35:25;97757.50;;;7.45;100.00
55914;BME280;58179;48.776;9.124;2024-02-28T14:37:53;97751.66;;;7.43;100.00
55914;BME280;58179;48.776;9.124;2024-02-28T14:40:20;97751.66;;;7.43;100.00
55914;BME280;58179;48.776;9.124;2024-02-28T14:42:46;97751.44;;;7.44;100.00
55914;BME280;58179;48.776;9.124;2024-02-28T14:45:13;97750.66;;;7.44;100.00
55914;BME280;58179;48.776;9.124;2024-02-28T14:47:42;97755.91;;;7.44;100.00
55914;BME280;58179;48.776;9.124;2024-02-28T14:50:09;97751.44;;;7.44;100.00
55914;BME280;58179;48.776;9.124;2024-02-28T14:52:36;97749.38;;;7.46;100.00
55914;BME280;58179;48.776;9.124;2024-02-28T14:55:05;97759.09;;;7.46;100.00
55914;BME280;58179;48.776;9.124;2024-02-28T14:57:32;97762.75;;;7.45;100.00
55914;BME280;58179;48.776;9.124;2024-02-28T14:59:59;97756.94;;;7.43;100.00
55914;BME280;58179;48.776;9.124;2024-02-28T15:02:25;97755.31;;;7.42;100.00
55914;BME280;58179;48.776;9.124;2024-02-28T15:04:51;97757.59;;;7.38;100.00
55914;BME280;58179;48.776;9.124;2024-02-28T15:07:17;97756.22;;;7.35;100.00
55914;BME280;58179;48.776;9.124;2024-02-28T15:09:43;97760.09;;;7.33;100.00
55914;BME280;58179;48.776;9.124;2024-02-28T15:12:11;97757.06;;;7.29;100.00
55914;BME280;58179;48.776;9.124;2024-02-28T15:14:37;97749.41;;;7.28;100.00
55914;BME280;58179;48.776;9.124;2024-02-28T15:17:03;97756.13;;;7.24;100.00
55914;BME280;58179;48.776;9.124;2024-02-28T15:19:30;97751.31;;;7.21;100.00
55914;BME280;58179;48.776;9.124;2024-02-28T15:21:57;97756.22;;;7.17;100.00
55914;BME280;58179;48.776;9.124;2024-02-28T15:24:23;97761.34;;;7.12;100.00
55914;BME280;58179;48.776;9.124;2024-02-28T15:26:49;97760.41;;;7.07;100.00
55914;BME280;58179;48.776;9.124;2024-02-28T15:29:19;97752.34;;;7.02;100.00
55914;BME280;58179;48.776;9.124;2024-02-28T15:31:45;97749.69;;;7.02;100.00
55914;BME280;58179;48.776;9.124;2024-02-28T15:34:12;97757.81;;;7.00;100.00
55914;BME280;58179;48.776;9.124;2024-02-28T15:36:38;97753.59;;;6.99;100.00
55914;BME280;58179;48.776;9.124;2024-02-28T15:39:04;97751.19;;;6.97;100.00
55914;BME280;58179;48.776;9.124;2024-02-28T15:41:30;97753.22;;;6.95;100.00
55914;BME280;58179;48.776;9.124;2024-02-28T15:43:56;97751.00;;;6.92;100.00
55914;BME280;58179;48.776;9.124;2024-02-28T15:46:23;97751.25;;;6.91;100.00
55914;BME280;58179;48.776;9.124;2024-02-28T15:48:50;97755.09;;;6.88;100.00
55914;BME280;58179;48.776;9.124;2024-02-28T15:51:16;97755.31;;;6.87;100.00
55914;BME280;58179;48.776;9.124;2024-02-28T15:53:42;97745.59;;;6.87;100.00
55914;BME280;58179;48.776;9.124;2024-02-28T15:56:08;97742.38;;;6.85;100.00
55914;BME280;58179;48.776;9.124;2024-02-28T15:58:34;97744.66;;;6.82;100.00
55914;BME280;58179;48.776;9.124;2024-02-28T16:01:01;97753.63;;;6.74;100.00
55914;BME280;58179;48.776;9.124;2024-02-28T16:03:29;97749.00;;;6.70;100.00
55914;BME280;58179;48.776;9.124;2024-02-28T16:05:55;97752.91;;;6.67;100.00
55914;BME280;58179;48.776;9.124;2024-02-28T16:08:21;97756.53;;;6.66;100.00
55914;BME280;58179;48.776;9.124;2024-02-28T16:10:51;97752.91;;;6.67;100.00
55914;BME280;58179;48.776;9.124;2024-02-28T16:13:17;97754.13;;;6.65;100.00
55914;BME280;58179;48.776;9.124;2024-02-28T16:15:46;97756.41;;;6.61;100.00
55914;BME280;58179;48.776;9.124;2024-02-28T16:18:12;97758.22;;;6.60;100.00